sensor_id;sensor_type;location;lat;lon;timestamp;P1;durP1;ratioP1;P2;durP2;ratioP2
37485;SDS011;23341;50.296;18.960;2023-03-01T00:04:53;145.63;;;66.07;;
37485;SDS011;23341;50.296;18.960;2023-03-01T00:09:58;130.40;;;54.35;;
37485;SDS011;23341;50.296;18.960;2023-03-01T00:15:02;119.78;;;48.30;;
37485;SDS011;23341;50.296;18.960;2023-03-01T00:20:09;119.65;;;49.83;;
37485;SDS011;23341;50.296;18.960;2023-03-01T00:25:15;117.38;;;47.95;;
37485;SDS011;23341;50.296;18.960;2023-03-01T00:30:19;110.65;;;46.95;;
37485;SDS011;23341;50.296;18.960;2023-03-01T00:35:25;116.25;;;47.78;;
37485;SDS011;23341;50.296;18.960;2023-03-01T00:40:29;113.10;;;45.13;;
37485;SDS011;23341;50.296;18.960;2023-03-01T00:45:36;113.63;;;47.30;;
37485;SDS011;23341;50.296;18.960;2023-03-01T00:50:42;114.53;;;47.65;;
37485;SDS011;23341;50.296;18.960;2023-03-01T00:55:47;126.38;;;49.33;;
37485;SDS011;23341;50.296;18.960;2023-03-01T01:00:51;111.45;;;47.97;;
37485;SDS011;23341;50.296;18.960;2023-03-01T01:05:57;103.32;;;45.15;;
37485;SDS011;23341;50.296;18.960;2023-03-01T01:11:01;118.38;;;48.30;;
37485;SDS011;23341;50.296;18.960;2023-03-01T01:16:06;108.68;;;47.42;;
37485;SDS011;23341;50.296;18.960;2023-03-01T01:21:13;116.10;;;47.17;;
37485;SDS011;23341;50.296;18.960;2023-03-01T01:26:20;127.95;;;47.30;;
37485;SDS011;23341;50.296;18.960;2023-03-01T01:31:27;125.47;;;51.92;;
37485;SDS011;23341;50.296;18.960;2023-03-01T01:36:33;124.85;;;53.58;;
37485;SDS011;23341;50.296;18.960;2023-03-01T01:41:39;119.68;;;50.83;;
37485;SDS011;23341;50.296;18.960;2023-03-01T01:46:45;118.43;;;50.78;;
37485;SDS011;23341;50.296;18.960;2023-03-01T01:51:55;127.87;;;52.73;;
37485;SDS011;23341;50.296;18.960;2023-03-01T01:57:06;126.78;;;52.13;;
37485;SDS011;23341;50.296;18.960;2023-03-01T02:02:16;121.55;;;52.03;;
37485;SDS011;23341;50.296;18.960;2023-03-01T02:07:22;118.38;;;47.92;;
37485;SDS011;23341;50.296;18.960;2023-03-01T02:12:28;125.32;;;50.35;;
37485;SDS011;23341;50.296;18.960;2023-03-01T02:17:33;112.45;;;48.65;;
37485;SDS011;23341;50.296;18.960;2023-03-01T02:22:40;106.75;;;47.40;;
37485;SDS011;23341;50.296;18.960;2023-03-01T02:27:51;109.38;;;45.75;;
37485;SDS011;23341;50.296;18.960;2023-03-01T02:33:04;106.15;;;49.00;;
37485;SDS011;23341;50.296;18.960;2023-03-01T02:38:08;103.55;;;47.55;;
37485;SDS011;23341;50.296;18.960;2023-03-01T02:43:13;106.32;;;48.53;;
37485;SDS011;23341;50.296;18.960;2023-03-01T02:48:19;114.90;;;50.47;;
37485;SDS011;23341;50.296;18.960;2023-03-01T02:53:27;111.20;;;47.65;;
37485;SDS011;23341;50.296;18.960;2023-03-01T02:58:43;120.20;;;50.65;;
37485;SDS011;23341;50.296;18.960;2023-03-01T03:03:52;127.75;;;52.63;;
37485;SDS011;23341;50.296;18.960;2023-03-01T03:08:56;113.97;;;48.65;;
37485;SDS011;23341;50.296;18.960;2023-03-01T03:14:01;114.53;;;50.20;;
37485;SDS011;23341;50.296;18.960;2023-03-01T03:19:06;108.60;;;47.83;;
37485;SDS011;23341;50.296;18.960;2023-03-01T03:24:12;102.50;;;41.45;;
37485;SDS011;23341;50.296;18.960;2023-03-01T03:29:16;95.50;;;42.45;;
37485;SDS011;23341;50.296;18.960;2023-03-01T03:34:21;91.32;;;42.30;;
37485;SDS011;23341;50.296;18.960;2023-03-01T03:39:26;100.63;;;42.28;;
37485;SDS011;23341;50.296;18.960;2023-03-01T03:44:31;95.68;;;40.67;;
37485;SDS011;23341;50.296;18.960;2023-03-01T03:49:37;97.63;;;42.85;;
37485;SDS011;23341;50.296;18.960;2023-03-01T03:54:41;102.00;;;46.58;;
37485;SDS011;23341;50.296;18.960;2023-03-01T03:59:45;114.32;;;51.65;;
37485;SDS011;23341;50.296;18.960;2023-03-01T04:04:51;114.13;;;49.20;;
37485;SDS011;23341;50.296;18.960;2023-03-01T04:09:55;98.95;;;44.08;;
37485;SDS011;23341;50.296;18.960;2023-03-01T04:15:00;107.80;;;42.50;;
37485;SDS011;23341;50.296;18.960;2023-03-01T04:20:08;93.28;;;42.50;;
37485;SDS011;23341;50.296;18.960;2023-03-01T04:25:14;89.00;;;41.13;;
37485;SDS011;23341;50.296;18.960;2023-03-01T04:30:18;88.15;;;40.50;;
37485;SDS011;23341;50.296;18.960;2023-03-01T04:35:24;89.18;;;37.03;;
37485;SDS011;23341;50.296;18.960;2023-03-01T04:40:28;95.38;;;40.70;;
37485;SDS011;23341;50.296;18.960;2023-03-01T04:45:33;88.38;;;40.58;;
37485;SDS011;23341;50.296;18.960;2023-03-01T04:50:39;84.43;;;39.10;;
37485;SDS011;23341;50.296;18.960;2023-03-01T04:55:43;94.45;;;43.92;;
37485;SDS011;23341;50.296;18.960;2023-03-01T05:00:48;84.18;;;40.25;;
37485;SDS011;23341;50.296;18.960;2023-03-01T05:05:53;89.75;;;40.22;;
37485;SDS011;23341;50.296;18.960;2023-03-01T05:10:57;93.63;;;39.60;;
37485;SDS011;23341;50.296;18.960;2023-03-01T05:16:03;86.85;;;38.42;;
37485;SDS011;23341;50.296;18.960;2023-03-01T05:21:12;98.72;;;42.30;;
37485;SDS011;23341;50.296;18.960;2023-03-01T05:26:20;88.90;;;39.90;;
37485;SDS011;23341;50.296;18.960;2023-03-01T05:31:31;102.43;;;43.60;;
37485;SDS011;23341;50.296;18.960;2023-03-01T05:36:36;91.22;;;40.08;;
37485;SDS011;23341;50.296;18.960;2023-03-01T05:41:41;92.35;;;40.28;;
37485;SDS011;23341;50.296;18.960;2023-03-01T05:46:46;110.85;;;44.80;;
37485;SDS011;23341;50.296;18.960;2023-03-01T05:51:52;108.90;;;48.45;;
37485;SDS011;23341;50.296;18.960;2023-03-01T05:56:57;99.15;;;45.88;;
37485;SDS011;23341;50.296;18.960;2023-03-01T06:02:01;92.55;;;43.75;;
37485;SDS011;23341;50.296;18.960;2023-03-01T06:07:06;99.60;;;46.17;;
37485;SDS011;23341;50.296;18.960;2023-03-01T06:12:11;97.45;;;46.60;;
37485;SDS011;23341;50.296;18.960;2023-03-01T06:17:15;106.90;;;45.90;;
37485;SDS011;23341;50.296;18.960;2023-03-01T06:22:21;93.22;;;43.92;;
37485;SDS011;23341;50.296;18.960;2023-03-01T06:27:25;99.28;;;45.95;;
37485;SDS011;23341;50.296;18.960;2023-03-01T06:32:29;104.88;;;47.45;;
37485;SDS011;23341;50.296;18.960;2023-03-01T06:37:36;100.25;;;48.40;;
37485;SDS011;23341;50.296;18.960;2023-03-01T06:42:42;97.70;;;44.58;;
37485;SDS011;23341;50.296;18.960;2023-03-01T06:47:47;87.40;;;44.40;;
37485;SDS011;23341;50.296;18.960;2023-03-01T06:52:56;87.03;;;40.97;;
37485;SDS011;23341;50.296;18.960;2023-03-01T07:03:05;108.60;;;57.08;;
37485;SDS011;23341;50.296;18.960;2023-03-01T07:08:11;98.43;;;41.47;;
37485;SDS011;23341;50.296;18.960;2023-03-01T07:13:15;89.30;;;41.35;;
37485;SDS011;23341;50.296;18.960;2023-03-01T07:18:20;82.40;;;39.15;;
37485;SDS011;23341;50.296;18.960;2023-03-01T07:23:25;159.43;;;65.07;;
37485;SDS011;23341;50.296;18.960;2023-03-01T07:28:30;118.22;;;51.15;;
37485;SDS011;23341;50.296;18.960;2023-03-01T07:33:38;72.00;;;38.65;;
37485;SDS011;23341;50.296;18.960;2023-03-01T07:38:44;68.60;;;37.25;;
37485;SDS011;23341;50.296;18.960;2023-03-01T07:43:48;71.88;;;36.90;;
37485;SDS011;23341;50.296;18.960;2023-03-01T07:48:52;61.00;;;34.03;;
37485;SDS011;23341;50.296;18.960;2023-03-01T07:53:58;64.03;;;33.97;;
37485;SDS011;23341;50.296;18.960;2023-03-01T07:59:02;59.00;;;32.65;;
37485;SDS011;23341;50.296;18.960;2023-03-01T08:04:07;67.78;;;35.60;;
37485;SDS011;23341;50.296;18.960;2023-03-01T08:09:13;151.18;;;75.65;;
37485;SDS011;23341;50.296;18.960;2023-03-01T08:14:17;60.42;;;32.75;;
37485;SDS011;23341;50.296;18.960;2023-03-01T08:19:21;207.88;;;108.60;;
37485;SDS011;23341;50.296;18.960;2023-03-01T08:24:27;171.80;;;97.07;;
37485;SDS011;23341;50.296;18.960;2023-03-01T08:29:31;79.68;;;40.85;;
37485;SDS011;23341;50.296;18.960;2023-03-01T08:34:36;77.72;;;40.47;;
37485;SDS011;23341;50.296;18.960;2023-03-01T08:39:44;70.85;;;36.70;;
37485;SDS011;23341;50.296;18.960;2023-03-01T08:44:48;44.75;;;26.40;;
37485;SDS011;23341;50.296;18.960;2023-03-01T08:49:53;45.03;;;19.75;;
37485;SDS011;23341;50.296;18.960;2023-03-01T08:54:59;41.40;;;21.83;;
37485;SDS011;23341;50.296;18.960;2023-03-01T09:00:05;26.73;;;16.85;;
37485;SDS011;23341;50.296;18.960;2023-03-01T09:05:12;36.55;;;21.02;;
37485;SDS011;23341;50.296;18.960;2023-03-01T09:10:17;37.30;;;20.60;;
37485;SDS011;23341;50.296;18.960;2023-03-01T09:15:22;34.28;;;18.70;;
37485;SDS011;23341;50.296;18.960;2023-03-01T09:20:27;31.58;;;16.63;;
37485;SDS011;23341;50.296;18.960;2023-03-01T09:25:32;38.55;;;19.40;;
37485;SDS011;23341;50.296;18.960;2023-03-01T09:30:38;34.88;;;18.98;;
37485;SDS011;23341;50.296;18.960;2023-03-01T09:35:42;47.58;;;22.63;;
37485;SDS011;23341;50.296;18.960;2023-03-01T09:40:50;31.98;;;16.50;;
37485;SDS011;23341;50.296;18.960;2023-03-01T09:45:55;31.27;;;18.13;;
37485;SDS011;23341;50.296;18.960;2023-03-01T09:51:03;31.70;;;15.20;;
37485;SDS011;23341;50.296;18.960;2023-03-01T09:56:19;38.72;;;19.45;;
37485;SDS011;23341;50.296;18.960;2023-03-01T10:01:29;33.92;;;18.42;;
37485;SDS011;23341;50.296;18.960;2023-03-01T10:06:37;29.30;;;16.30;;
37485;SDS011;23341;50.296;18.960;2023-03-01T10:11:45;50.13;;;22.60;;
37485;SDS011;23341;50.296;18.960;2023-03-01T10:16:54;48.20;;;21.48;;
37485;SDS011;23341;50.296;18.960;2023-03-01T10:22:09;42.15;;;22.95;;
37485;SDS011;23341;50.296;18.960;2023-03-01T10:27:21;52.20;;;24.08;;
37485;SDS011;23341;50.296;18.960;2023-03-01T10:32:27;59.08;;;26.33;;
37485;SDS011;23341;50.296;18.960;2023-03-01T10:37:32;49.72;;;23.63;;
37485;SDS011;23341;50.296;18.960;2023-03-01T10:42:39;50.85;;;25.20;;
37485;SDS011;23341;50.296;18.960;2023-03-01T10:47:55;47.47;;;22.42;;
37485;SDS011;23341;50.296;18.960;2023-03-01T10:53:18;49.10;;;24.42;;
37485;SDS011;23341;50.296;18.960;2023-03-01T10:58:29;61.88;;;28.98;;
37485;SDS011;23341;50.296;18.960;2023-03-01T11:03:35;276.98;;;91.32;;
37485;SDS011;23341;50.296;18.960;2023-03-01T11:08:41;97.28;;;38.42;;
37485;SDS011;23341;50.296;18.960;2023-03-01T11:13:52;449.58;;;195.60;;
37485;SDS011;23341;50.296;18.960;2023-03-01T11:18:59;43.67;;;19.08;;
37485;SDS011;23341;50.296;18.960;2023-03-01T11:24:09;52.92;;;22.00;;
37485;SDS011;23341;50.296;18.960;2023-03-01T11:29:21;54.03;;;25.77;;
37485;SDS011;23341;50.296;18.960;2023-03-01T11:34:50;51.78;;;25.55;;
37485;SDS011;23341;50.296;18.960;2023-03-01T11:40:03;100.32;;;44.40;;
37485;SDS011;23341;50.296;18.960;2023-03-01T11:45:17;29.50;;;17.92;;
37485;SDS011;23341;50.296;18.960;2023-03-01T11:50:28;52.70;;;29.08;;
37485;SDS011;23341;50.296;18.960;2023-03-01T11:55:45;32.67;;;18.70;;
37485;SDS011;23341;50.296;18.960;2023-03-01T12:01:06;25.70;;;14.45;;
37485;SDS011;23341;50.296;18.960;2023-03-01T12:06:29;49.78;;;24.10;;
37485;SDS011;23341;50.296;18.960;2023-03-01T12:11:55;37.75;;;22.23;;
37485;SDS011;23341;50.296;18.960;2023-03-01T12:17:30;31.13;;;17.27;;
37485;SDS011;23341;50.296;18.960;2023-03-01T12:22:50;31.10;;;18.13;;
37485;SDS011;23341;50.296;18.960;2023-03-01T12:28:25;29.08;;;15.88;;
37485;SDS011;23341;50.296;18.960;2023-03-01T12:33:48;25.48;;;13.88;;
37485;SDS011;23341;50.296;18.960;2023-03-01T12:39:00;28.52;;;13.52;;
37485;SDS011;23341;50.296;18.960;2023-03-01T12:44:18;31.20;;;17.02;;
37485;SDS011;23341;50.296;18.960;2023-03-01T12:49:37;27.23;;;16.55;;
37485;SDS011;23341;50.296;18.960;2023-03-01T12:54:46;28.77;;;16.42;;
37485;SDS011;23341;50.296;18.960;2023-03-01T12:59:58;28.58;;;16.15;;
37485;SDS011;23341;50.296;18.960;2023-03-01T13:05:19;28.43;;;15.30;;
37485;SDS011;23341;50.296;18.960;2023-03-01T13:10:32;27.90;;;16.90;;
37485;SDS011;23341;50.296;18.960;2023-03-01T13:15:38;22.70;;;14.90;;
37485;SDS011;23341;50.296;18.960;2023-03-01T13:20:46;34.53;;;18.95;;
37485;SDS011;23341;50.296;18.960;2023-03-01T13:26:05;32.93;;;16.50;;
37485;SDS011;23341;50.296;18.960;2023-03-01T13:37:17;22.35;;;14.10;;
37485;SDS011;23341;50.296;18.960;2023-03-01T13:42:35;31.45;;;15.88;;
37485;SDS011;23341;50.296;18.960;2023-03-01T13:47:42;23.00;;;12.90;;
37485;SDS011;23341;50.296;18.960;2023-03-01T13:52:52;17.83;;;11.27;;
37485;SDS011;23341;50.296;18.960;2023-03-01T13:58:01;25.58;;;14.30;;
37485;SDS011;23341;50.296;18.960;2023-03-01T14:03:11;18.65;;;11.80;;
37485;SDS011;23341;50.296;18.960;2023-03-01T14:13:31;27.67;;;13.70;;
37485;SDS011;23341;50.296;18.960;2023-03-01T14:18:50;25.38;;;12.40;;
37485;SDS011;23341;50.296;18.960;2023-03-01T14:24:04;22.98;;;11.40;;
37485;SDS011;23341;50.296;18.960;2023-03-01T14:29:22;25.25;;;13.30;;
37485;SDS011;23341;50.296;18.960;2023-03-01T14:34:28;20.80;;;12.30;;
37485;SDS011;23341;50.296;18.960;2023-03-01T14:39:35;21.85;;;13.15;;
37485;SDS011;23341;50.296;18.960;2023-03-01T14:44:40;16.17;;;10.68;;
37485;SDS011;23341;50.296;18.960;2023-03-01T14:49:45;23.27;;;11.63;;
37485;SDS011;23341;50.296;18.960;2023-03-01T14:54:54;32.60;;;17.88;;
37485;SDS011;23341;50.296;18.960;2023-03-01T14:59:59;38.60;;;21.05;;
37485;SDS011;23341;50.296;18.960;2023-03-01T15:05:08;28.92;;;15.98;;
37485;SDS011;23341;50.296;18.960;2023-03-01T15:10:17;24.65;;;13.57;;
37485;SDS011;23341;50.296;18.960;2023-03-01T15:15:31;26.58;;;16.23;;
37485;SDS011;23341;50.296;18.960;2023-03-01T15:20:38;51.15;;;27.08;;
37485;SDS011;23341;50.296;18.960;2023-03-01T15:25:44;33.53;;;16.08;;
37485;SDS011;23341;50.296;18.960;2023-03-01T15:30:51;41.67;;;20.27;;
37485;SDS011;23341;50.296;18.960;2023-03-01T15:35:58;37.35;;;19.90;;
37485;SDS011;23341;50.296;18.960;2023-03-01T15:41:05;36.60;;;19.73;;
37485;SDS011;23341;50.296;18.960;2023-03-01T15:46:27;25.73;;;13.38;;
37485;SDS011;23341;50.296;18.960;2023-03-01T15:51:35;30.33;;;16.90;;
37485;SDS011;23341;50.296;18.960;2023-03-01T15:56:42;81.38;;;32.05;;
37485;SDS011;23341;50.296;18.960;2023-03-01T16:01:47;48.38;;;22.60;;
37485;SDS011;23341;50.296;18.960;2023-03-01T16:06:52;48.88;;;23.50;;
37485;SDS011;23341;50.296;18.960;2023-03-01T16:11:58;60.75;;;27.70;;
37485;SDS011;23341;50.296;18.960;2023-03-01T16:17:04;52.05;;;23.83;;
37485;SDS011;23341;50.296;18.960;2023-03-01T16:22:08;48.08;;;25.33;;
37485;SDS011;23341;50.296;18.960;2023-03-01T16:27:15;48.95;;;24.50;;
37485;SDS011;23341;50.296;18.960;2023-03-01T16:32:19;48.33;;;22.85;;
37485;SDS011;23341;50.296;18.960;2023-03-01T16:37:23;57.60;;;25.50;;
37485;SDS011;23341;50.296;18.960;2023-03-01T16:42:29;82.13;;;34.05;;
37485;SDS011;23341;50.296;18.960;2023-03-01T16:47:41;108.05;;;40.80;;
37485;SDS011;23341;50.296;18.960;2023-03-01T16:52:46;133.77;;;49.70;;
37485;SDS011;23341;50.296;18.960;2023-03-01T16:57:51;105.25;;;44.40;;
37485;SDS011;23341;50.296;18.960;2023-03-01T17:02:56;112.72;;;47.08;;
37485;SDS011;23341;50.296;18.960;2023-03-01T17:08:01;87.47;;;39.28;;
37485;SDS011;23341;50.296;18.960;2023-03-01T17:13:07;84.18;;;38.35;;
37485;SDS011;23341;50.296;18.960;2023-03-01T17:18:12;101.70;;;44.67;;
37485;SDS011;23341;50.296;18.960;2023-03-01T17:23:16;93.72;;;43.08;;
37485;SDS011;23341;50.296;18.960;2023-03-01T17:28:23;99.20;;;43.78;;
37485;SDS011;23341;50.296;18.960;2023-03-01T17:33:28;92.25;;;40.83;;
37485;SDS011;23341;50.296;18.960;2023-03-01T17:38:33;93.32;;;42.10;;
37485;SDS011;23341;50.296;18.960;2023-03-01T17:43:40;106.90;;;44.83;;
37485;SDS011;23341;50.296;18.960;2023-03-01T17:48:44;119.65;;;47.65;;
37485;SDS011;23341;50.296;18.960;2023-03-01T17:53:49;127.80;;;54.17;;
37485;SDS011;23341;50.296;18.960;2023-03-01T17:58:55;131.88;;;52.40;;
37485;SDS011;23341;50.296;18.960;2023-03-01T18:03:59;121.07;;;51.85;;
37485;SDS011;23341;50.296;18.960;2023-03-01T18:09:03;119.75;;;49.47;;
37485;SDS011;23341;50.296;18.960;2023-03-01T18:14:09;125.50;;;54.08;;
37485;SDS011;23341;50.296;18.960;2023-03-01T18:19:13;136.80;;;54.92;;
37485;SDS011;23341;50.296;18.960;2023-03-01T18:24:17;125.72;;;52.70;;
37485;SDS011;23341;50.296;18.960;2023-03-01T18:29:24;118.43;;;54.35;;
37485;SDS011;23341;50.296;18.960;2023-03-01T18:34:28;119.32;;;51.17;;
37485;SDS011;23341;50.296;18.960;2023-03-01T18:39:32;110.28;;;48.15;;
37485;SDS011;23341;50.296;18.960;2023-03-01T18:44:38;216.85;;;84.88;;
37485;SDS011;23341;50.296;18.960;2023-03-01T18:49:43;131.07;;;59.42;;
37485;SDS011;23341;50.296;18.960;2023-03-01T18:54:47;99.18;;;41.97;;
37485;SDS011;23341;50.296;18.960;2023-03-01T18:59:53;112.63;;;46.78;;
37485;SDS011;23341;50.296;18.960;2023-03-01T19:04:57;106.25;;;47.22;;
37485;SDS011;23341;50.296;18.960;2023-03-01T19:10:02;108.78;;;47.95;;
37485;SDS011;23341;50.296;18.960;2023-03-01T19:15:08;129.93;;;48.53;;
37485;SDS011;23341;50.296;18.960;2023-03-01T19:20:13;145.77;;;62.63;;
37485;SDS011;23341;50.296;18.960;2023-03-01T19:25:17;146.02;;;65.63;;
37485;SDS011;23341;50.296;18.960;2023-03-01T19:30:23;158.20;;;70.38;;
37485;SDS011;23341;50.296;18.960;2023-03-01T19:35:28;155.70;;;65.25;;
37485;SDS011;23341;50.296;18.960;2023-03-01T19:40:34;146.23;;;61.90;;
37485;SDS011;23341;50.296;18.960;2023-03-01T19:45:40;144.80;;;69.20;;
37485;SDS011;23341;50.296;18.960;2023-03-01T19:50:45;164.18;;;72.00;;
37485;SDS011;23341;50.296;18.960;2023-03-01T19:55:49;163.50;;;72.85;;
37485;SDS011;23341;50.296;18.960;2023-03-01T20:00:56;303.92;;;124.40;;
37485;SDS011;23341;50.296;18.960;2023-03-01T20:06:06;233.73;;;102.72;;
37485;SDS011;23341;50.296;18.960;2023-03-01T20:11:12;222.55;;;92.68;;
37485;SDS011;23341;50.296;18.960;2023-03-01T20:16:19;215.50;;;91.82;;
37485;SDS011;23341;50.296;18.960;2023-03-01T20:21:26;197.25;;;83.65;;
37485;SDS011;23341;50.296;18.960;2023-03-01T20:26:30;187.75;;;82.43;;
37485;SDS011;23341;50.296;18.960;2023-03-01T20:31:37;198.50;;;84.80;;
37485;SDS011;23341;50.296;18.960;2023-03-01T20:36:43;186.57;;;79.05;;
37485;SDS011;23341;50.296;18.960;2023-03-01T20:41:47;159.60;;;71.78;;
37485;SDS011;23341;50.296;18.960;2023-03-01T20:46:52;177.60;;;73.28;;
37485;SDS011;23341;50.296;18.960;2023-03-01T20:51:57;180.40;;;69.45;;
37485;SDS011;23341;50.296;18.960;2023-03-01T20:57:02;167.07;;;69.15;;
37485;SDS011;23341;50.296;18.960;2023-03-01T21:02:08;192.38;;;75.70;;
37485;SDS011;23341;50.296;18.960;2023-03-01T21:07:12;169.82;;;67.85;;
37485;SDS011;23341;50.296;18.960;2023-03-01T21:12:17;182.90;;;70.45;;
37485;SDS011;23341;50.296;18.960;2023-03-01T21:17:23;179.55;;;72.25;;
37485;SDS011;23341;50.296;18.960;2023-03-01T21:22:27;178.68;;;70.68;;
37485;SDS011;23341;50.296;18.960;2023-03-01T21:27:37;201.38;;;75.75;;
37485;SDS011;23341;50.296;18.960;2023-03-01T21:32:43;209.15;;;81.72;;
37485;SDS011;23341;50.296;18.960;2023-03-01T21:37:47;205.45;;;80.72;;
37485;SDS011;23341;50.296;18.960;2023-03-01T21:42:51;201.35;;;77.97;;
37485;SDS011;23341;50.296;18.960;2023-03-01T21:47:57;177.02;;;70.05;;
37485;SDS011;23341;50.296;18.960;2023-03-01T21:53:01;195.88;;;74.60;;
37485;SDS011;23341;50.296;18.960;2023-03-01T21:58:06;219.85;;;85.18;;
37485;SDS011;23341;50.296;18.960;2023-03-01T22:03:12;201.75;;;76.90;;
37485;SDS011;23341;50.296;18.960;2023-03-01T22:08:17;184.52;;;70.65;;
37485;SDS011;23341;50.296;18.960;2023-03-01T22:13:21;188.60;;;75.15;;
37485;SDS011;23341;50.296;18.960;2023-03-01T22:18:27;206.52;;;82.45;;
37485;SDS011;23341;50.296;18.960;2023-03-01T22:23:31;184.95;;;74.90;;
37485;SDS011;23341;50.296;18.960;2023-03-01T22:28:37;176.18;;;73.80;;
37485;SDS011;23341;50.296;18.960;2023-03-01T22:33:43;150.85;;;61.50;;
37485;SDS011;23341;50.296;18.960;2023-03-01T22:38:47;183.52;;;70.80;;
37485;SDS011;23341;50.296;18.960;2023-03-01T22:43:53;140.00;;;58.30;;
37485;SDS011;23341;50.296;18.960;2023-03-01T22:49:00;174.20;;;65.97;;
37485;SDS011;23341;50.296;18.960;2023-03-01T22:54:04;162.27;;;66.00;;
37485;SDS011;23341;50.296;18.960;2023-03-01T22:59:10;164.85;;;67.78;;
37485;SDS011;23341;50.296;18.960;2023-03-01T23:04:18;145.90;;;59.53;;
37485;SDS011;23341;50.296;18.960;2023-03-01T23:09:24;152.60;;;58.95;;
37485;SDS011;23341;50.296;18.960;2023-03-01T23:14:31;150.20;;;62.10;;
37485;SDS011;23341;50.296;18.960;2023-03-01T23:19:37;163.80;;;62.45;;
37485;SDS011;23341;50.296;18.960;2023-03-01T23:24:41;167.73;;;62.75;;
37485;SDS011;23341;50.296;18.960;2023-03-01T23:29:46;185.13;;;75.32;;
37485;SDS011;23341;50.296;18.960;2023-03-01T23:34:51;169.70;;;66.32;;
37485;SDS011;23341;50.296;18.960;2023-03-01T23:39:56;146.07;;;59.30;;
37485;SDS011;23341;50.296;18.960;2023-03-01T23:45:00;146.15;;;58.92;;
37485;SDS011;23341;50.296;18.960;2023-03-01T23:50:07;146.07;;;57.72;;
37485;SDS011;23341;50.296;18.960;2023-03-01T23:55:12;140.75;;;56.67;;
